createdAt,value
2022-09-16T00:01:31.026Z,100416.63
2022-09-16T00:03:57.575Z,100406.81
2022-09-16T00:06:25.643Z,100399.91
2022-09-16T00:08:52.247Z,100400.75
2022-09-16T00:11:18.839Z,100371.47
2022-09-16T00:13:45.787Z,100379.69
2022-09-16T00:16:16.803Z,100373.69
2022-09-16T00:18:43.172Z,100375.72
2022-09-16T00:21:10.514Z,100382.97
2022-09-16T00:23:37.448Z,100388.69
2022-09-16T00:26:04.439Z,100383.91
2022-09-16T00:28:30.820Z,100386.16
2022-09-16T00:31:01.303Z,100393.72
2022-09-16T00:33:27.674Z,100390.94
2022-09-16T00:36:04.249Z,100404.97
2022-09-16T00:38:31.007Z,100406.28
2022-09-16T00:40:57.331Z,100415.75
2022-09-16T00:43:23.691Z,100420.31
2022-09-16T00:45:55.170Z,100426.34
2022-09-16T00:48:22.715Z,100431.25
2022-09-16T00:50:51.286Z,100436.38
2022-09-16T00:53:20.562Z,100452.06
2022-09-16T00:55:47.060Z,100479.31
2022-09-16T00:58:13.419Z,100491.97
2022-09-16T01:00:40.651Z,100516.38
2022-09-16T01:03:07.063Z,100529.03
2022-09-16T01:05:33.872Z,100560.81
2022-09-16T01:08:00.456Z,100577.63
2022-09-16T01:10:26.840Z,100601.59
2022-09-16T01:12:59.858Z,100624.09
2022-09-16T01:15:35.500Z,100650.66
2022-09-16T01:18:11.459Z,100663.22
2022-09-16T01:20:57.869Z,100678.59
2022-09-16T01:23:46.605Z,100690.63
2022-09-16T01:26:20.630Z,100704.22
2022-09-16T01:28:47.261Z,100732.78
2022-09-16T01:31:13.694Z,100745.69
2022-09-16T01:33:49.302Z,100761.81
2022-09-16T01:36:25.600Z,100778.84
2022-09-16T01:38:51.895Z,100794.50
2022-09-16T01:41:31.602Z,100807.88
2022-09-16T01:43:57.921Z,100819.84
2022-09-16T01:46:37.984Z,100828.19
2022-09-16T01:49:13.634Z,100847.59
2022-09-16T01:51:53.433Z,100852.28
2022-09-16T01:54:19.807Z,100869.09
2022-09-16T01:57:01.583Z,100876.41
2022-09-16T01:59:38.146Z,100907.41
2022-09-16T02:02:06.840Z,100916.06
2022-09-16T02:04:36.310Z,100918.13
2022-09-16T02:07:05.272Z,100931.13
2022-09-16T02:09:40.313Z,100926.13
2022-09-16T02:12:10.149Z,100944.72
2022-09-16T02:14:40.853Z,100955.03
2022-09-16T02:17:16.713Z,100948.09
2022-09-16T02:19:56.886Z,100952.16
2022-09-16T02:22:25.583Z,100934.66
2022-09-16T02:24:52.613Z,100937.66
2022-09-16T02:27:21.503Z,100935.34
2022-09-16T02:29:51.261Z,100931.41
2022-09-16T02:32:19.094Z,100920.25
2022-09-16T02:34:47.245Z,100916.66
2022-09-16T02:37:49.125Z,100923.13
2022-09-16T02:40:18.507Z,100909.38
2022-09-16T02:42:44.961Z,100910.91
2022-09-16T02:45:11.833Z,100910.38
2022-09-16T02:47:41.246Z,100918.56
2022-09-16T02:50:13.166Z,100911.31
2022-09-16T02:52:43.233Z,100908.97
2022-09-16T02:55:24.506Z,100906.31
2022-09-16T02:57:50.885Z,100900.34
2022-09-16T03:00:17.318Z,100906.50
2022-09-16T03:02:44.145Z,100900.03
2022-09-16T03:05:10.572Z,100895.91
2022-09-16T03:07:37.510Z,100893.94
2022-09-16T03:10:04.175Z,100893.22
2022-09-16T03:12:49.564Z,100898.28
2022-09-16T03:15:25.091Z,100903.00
2022-09-16T03:17:54.443Z,100910.38
2022-09-16T03:20:23.779Z,100917.47
2022-09-16T03:22:50.289Z,100915.28
2022-09-16T03:25:19.607Z,100909.72
2022-09-16T03:27:51.788Z,100912.66
2022-09-16T03:30:18.613Z,100919.03
2022-09-16T03:32:59.693Z,100908.88
2022-09-16T03:35:31.558Z,100916.53
2022-09-16T03:37:59.492Z,100910.34
2022-09-16T03:40:27.300Z,100910.00
2022-09-16T03:42:53.627Z,100902.84
2022-09-16T03:45:21.287Z,100903.88
2022-09-16T03:47:49.500Z,100897.44
2022-09-16T03:50:16.262Z,100888.84
2022-09-16T03:52:42.555Z,100890.34
2022-09-16T03:55:10.719Z,100879.47
2022-09-16T03:57:37.366Z,100881.94
2022-09-16T04:00:04.832Z,100866.53
2022-09-16T04:02:31.234Z,100863.38
2022-09-16T04:04:57.564Z,100856.06
2022-09-16T04:07:23.865Z,100851.13
2022-09-16T04:09:50.188Z,100841.88
2022-09-16T04:12:16.510Z,100838.66
2022-09-16T04:14:42.877Z,100834.53
2022-09-16T04:17:09.237Z,100819.09
2022-09-16T04:19:35.597Z,100819.00
2022-09-16T04:22:01.908Z,100817.06
2022-09-16T04:24:28.424Z,100815.19
2022-09-16T04:26:54.748Z,100808.59
2022-09-16T04:29:21.087Z,100808.28
2022-09-16T04:31:47.440Z,100788.47
2022-09-16T04:34:13.775Z,100785.47
2022-09-16T04:36:40.087Z,100776.50
2022-09-16T04:39:06.427Z,100760.63
2022-09-16T04:41:32.881Z,100758.53
2022-09-16T04:43:59.849Z,100742.66
2022-09-16T04:46:27.594Z,100730.38
2022-09-16T04:48:55.107Z,100713.84
2022-09-16T04:51:22.489Z,100702.69
2022-09-16T04:53:49.458Z,100699.41
2022-09-16T04:56:15.955Z,100685.63
2022-09-16T04:58:46.142Z,100677.91
2022-09-16T05:01:14.063Z,100656.09
2022-09-16T05:03:41.323Z,100655.84
2022-09-16T05:06:08.814Z,100641.19
2022-09-16T05:08:35.359Z,100626.03
2022-09-16T05:11:05.776Z,100621.84
2022-09-16T05:13:32.126Z,100613.91
2022-09-16T05:16:02.636Z,100609.63
2022-09-16T05:18:29.018Z,100591.44
2022-09-16T05:20:59.310Z,100594.69
2022-09-16T05:23:25.850Z,100583.88
2022-09-16T05:25:52.485Z,100584.63
2022-09-16T05:28:18.781Z,100564.59
2022-09-16T05:30:45.135Z,100549.09
2022-09-16T05:33:11.616Z,100541.34
2022-09-16T05:35:37.913Z,100530.75
2022-09-16T05:38:04.370Z,100516.19
2022-09-16T05:40:30.711Z,100509.47
2022-09-16T05:42:57.057Z,100505.69
2022-09-16T05:45:26.687Z,100481.47
2022-09-16T05:47:55.105Z,100483.78
2022-09-16T05:50:21.407Z,100464.28
2022-09-16T05:52:47.724Z,100451.78
2022-09-16T05:55:14.042Z,100454.75
2022-09-16T05:57:40.343Z,100440.28
2022-09-16T06:00:07.001Z,100429.66
2022-09-16T06:02:33.366Z,100415.78
2022-09-16T06:04:59.785Z,100412.81
2022-09-16T06:07:26.101Z,100414.88
2022-09-16T06:09:53.012Z,100406.06
2022-09-16T06:12:19.322Z,100402.69
2022-09-16T06:14:45.796Z,100384.66
2022-09-16T06:17:12.235Z,100384.47
2022-09-16T06:19:38.558Z,100378.13
2022-09-16T06:22:04.901Z,100372.56
2022-09-16T06:24:31.464Z,100380.53
2022-09-16T06:26:57.750Z,100374.84
2022-09-16T06:29:24.340Z,100368.63
2022-09-16T06:31:50.676Z,100373.06
2022-09-16T06:34:18.497Z,100361.38
2022-09-16T06:36:45.839Z,100366.03
2022-09-16T06:39:13.228Z,100360.00
2022-09-16T06:41:39.765Z,100357.53
2022-09-16T06:44:06.086Z,100335.06
2022-09-16T06:46:32.400Z,100342.16
2022-09-16T06:49:02.811Z,100348.56
2022-09-16T06:51:32.039Z,100345.19
2022-09-16T06:54:05.827Z,100334.66
2022-09-16T06:56:34.074Z,100335.50
2022-09-16T06:59:00.386Z,100346.13
2022-09-16T07:01:28.760Z,100343.78
2022-09-16T07:03:56.518Z,100356.28
2022-09-16T07:06:37.287Z,100348.84
2022-09-16T07:09:10.572Z,100339.44
2022-09-16T07:11:36.954Z,100331.56
2022-09-16T07:14:03.375Z,100330.84
2022-09-16T07:16:29.718Z,100329.84
2022-09-16T07:19:00.757Z,100318.72
2022-09-16T07:21:30.763Z,100313.41
2022-09-16T07:23:58.126Z,100307.09
2022-09-16T07:26:28.766Z,100297.47
2022-09-16T07:28:55.834Z,100291.06
2022-09-16T07:31:25.126Z,100278.47
2022-09-16T07:33:52.063Z,100275.19
2022-09-16T07:36:20.166Z,100264.41
2022-09-16T07:38:47.157Z,100265.16
2022-09-16T07:41:14.721Z,100258.00
2022-09-16T07:43:41.675Z,100249.97
2022-09-16T07:46:09.074Z,100256.94
2022-09-16T07:48:35.651Z,100254.78
2022-09-16T07:51:03.637Z,100246.78
2022-09-16T07:53:30.298Z,100239.16
2022-09-16T07:55:57.297Z,100231.53
2022-09-16T07:58:23.666Z,100227.41
2022-09-16T08:00:50.143Z,100228.47
2022-09-16T08:03:17.242Z,100219.63
2022-09-16T08:05:43.974Z,100210.69
2022-09-16T08:08:10.377Z,100193.19
2022-09-16T08:10:39.712Z,100194.16
2022-09-16T08:13:06.815Z,100183.41
2022-09-16T08:15:33.420Z,100171.75
2022-09-16T08:17:59.895Z,100163.53
2022-09-16T08:20:27.089Z,100141.53
2022-09-16T08:22:57.430Z,100128.75
2022-09-16T08:25:24.591Z,100129.50
2022-09-16T08:27:54.099Z,100107.31
2022-09-16T08:30:22.630Z,100111.81
2022-09-16T08:32:55.254Z,100075.91
2022-09-16T08:35:21.607Z,100067.50
2022-09-16T08:37:50.170Z,100068.94
2022-09-16T08:40:18.501Z,100048.63
2022-09-16T08:42:47.878Z,100046.50
2022-09-16T08:45:20.649Z,100038.84
2022-09-16T08:48:03.158Z,100025.59
2022-09-16T08:50:31.997Z,100039.22
2022-09-16T08:52:59.843Z,100025.59
2022-09-16T08:55:32.708Z,100023.75
2022-09-16T08:58:05.937Z,100032.56
2022-09-16T09:00:32.845Z,100018.81
2022-09-16T09:03:07.519Z,100001.41
2022-09-16T09:05:47.195Z,100013.97
2022-09-16T09:08:19.350Z,100009.63
2022-09-16T09:10:50.924Z,100005.13
2022-09-16T09:13:18.019Z,99987.13
2022-09-16T09:16:00.331Z,99987.28
2022-09-16T09:18:38.979Z,99987.41
2022-09-16T09:21:11.459Z,99989.94
2022-09-16T09:23:43.951Z,99973.38
2022-09-16T09:26:10.351Z,99992.47
2022-09-16T09:28:49.148Z,99996.09
2022-09-16T09:31:18.572Z,99981.56
2022-09-16T09:33:54.712Z,99978.63
2022-09-16T09:36:27.272Z,99982.41
2022-09-16T09:38:56.658Z,100006.94
2022-09-16T09:41:31.445Z,99984.56
2022-09-16T09:44:16.695Z,99973.75
2022-09-16T09:46:45.374Z,99986.47
2022-09-16T09:49:13.877Z,100000.13
2022-09-16T09:51:57.021Z,100026.09
2022-09-16T09:54:26.246Z,100036.63
2022-09-16T09:56:59.845Z,100060.59
2022-09-16T09:59:38.440Z,100062.59
2022-09-16T10:02:13.104Z,100094.13
2022-09-16T10:04:39.470Z,100112.75
2022-09-16T10:07:06.527Z,100104.06
2022-09-16T10:09:33.705Z,100092.41
2022-09-16T10:12:01.063Z,100102.47
2022-09-16T10:14:32.219Z,100101.59
2022-09-16T10:17:03.316Z,100088.56
2022-09-16T10:19:31.236Z,100037.38
2022-09-16T10:22:12.146Z,100024.03
2022-09-16T10:24:40.400Z,100011.28
2022-09-16T10:27:21.061Z,100024.66
2022-09-16T10:29:47.886Z,99987.69
2022-09-16T10:32:19.259Z,99994.44
2022-09-16T10:34:46.570Z,99963.50
2022-09-16T10:37:13.024Z,99956.63
2022-09-16T10:39:40.793Z,99958.09
2022-09-16T10:42:24.176Z,99953.44
2022-09-16T10:44:52.452Z,99956.31
2022-09-16T10:47:22.157Z,99943.97
2022-09-16T10:49:49.689Z,99973.09
2022-09-16T10:52:16.577Z,99947.47
2022-09-16T10:54:43.410Z,99932.63
2022-09-16T10:57:24.297Z,99916.50
2022-09-16T11:00:16.962Z,99923.88
2022-09-16T11:03:02.318Z,99934.44
2022-09-16T11:05:34.827Z,99939.66
2022-09-16T11:08:10.268Z,99937.75
2022-09-16T11:10:42.775Z,99922.72
2022-09-16T11:13:09.095Z,99930.38
2022-09-16T11:15:38.421Z,99923.13
2022-09-16T11:18:14.768Z,99919.66
2022-09-16T11:21:00.843Z,99943.00
2022-09-16T11:23:39.471Z,99908.16
2022-09-16T11:26:17.355Z,99928.25
2022-09-16T11:28:46.492Z,99923.59
2022-09-16T11:31:31.156Z,99899.78
2022-09-16T11:34:16.344Z,99922.50
2022-09-16T11:36:55.658Z,99887.72
2022-09-16T11:39:25.118Z,99896.09
2022-09-16T11:41:57.447Z,99897.00
2022-09-16T11:44:40.288Z,99897.25
2022-09-16T11:47:15.829Z,99886.59
2022-09-16T11:49:46.762Z,99889.53
2022-09-16T11:52:13.041Z,99895.16
2022-09-16T11:54:42.900Z,99905.66
2022-09-16T11:57:15.298Z,99884.38
2022-09-16T11:59:44.566Z,99878.63
2022-09-16T12:02:31.874Z,99865.50
2022-09-16T12:05:14.361Z,99882.81
2022-09-16T12:07:43.666Z,99854.31
2022-09-16T12:10:17.726Z,99853.88
2022-09-16T12:12:53.139Z,99857.31
2022-09-16T12:15:22.662Z,99835.97
2022-09-16T12:17:53.354Z,99863.06
2022-09-16T12:20:22.517Z,99859.03
2022-09-16T12:23:00.801Z,99841.66
2022-09-16T12:25:47.460Z,99850.00
2022-09-16T12:28:20.531Z,99825.16
2022-09-16T12:30:49.239Z,99843.28
2022-09-16T12:33:33.154Z,99835.78
2022-09-16T12:35:59.508Z,99808.34
2022-09-16T12:38:26.231Z,99829.94
2022-09-16T12:41:10.923Z,99852.81
2022-09-16T12:43:37.205Z,99864.97
2022-09-16T12:46:06.604Z,99876.31
2022-09-16T12:48:38.984Z,99860.34
2022-09-16T12:51:17.595Z,99875.31
2022-09-16T12:53:46.332Z,99857.38
2022-09-16T12:56:15.755Z,99860.25
2022-09-16T12:58:42.035Z,99855.75
2022-09-16T13:01:27.350Z,99837.53
2022-09-16T13:03:56.554Z,99828.75
2022-09-16T13:06:28.081Z,99825.41
2022-09-16T13:08:54.519Z,99834.22
2022-09-16T13:14:23.881Z,99831.75
2022-09-16T13:16:54.874Z,99831.22
2022-09-16T13:19:27.679Z,99827.00
2022-09-16T13:21:58.829Z,99838.91
2022-09-16T13:24:31.461Z,99820.59
2022-09-16T13:26:57.959Z,99824.22
2022-09-16T13:29:25.504Z,99828.56
2022-09-16T13:31:51.971Z,99822.72
2022-09-16T13:34:19.425Z,99821.56
2022-09-16T13:36:45.754Z,99828.19
2022-09-16T13:39:14.126Z,99849.00
2022-09-16T13:41:40.425Z,99861.59
2022-09-16T13:44:25.699Z,99858.97
2022-09-16T13:46:52.098Z,99889.16
2022-09-16T13:49:25.860Z,99896.41
2022-09-16T13:51:52.612Z,99907.66
2022-09-16T13:54:18.891Z,99927.97
2022-09-16T13:56:51.893Z,99938.50
2022-09-16T13:59:30.682Z,99952.91
2022-09-16T14:02:13.291Z,99973.78
2022-09-16T14:04:51.570Z,99988.16
2022-09-16T14:07:44.227Z,100007.59
2022-09-16T14:10:25.987Z,100007.72
2022-09-16T14:12:58.937Z,100025.41
2022-09-16T14:15:25.974Z,100030.81
2022-09-16T14:17:55.799Z,100035.66
2022-09-16T14:20:23.637Z,100042.19
2022-09-16T14:23:00.374Z,100043.78
2022-09-16T14:25:35.532Z,100082.31
2022-09-16T14:28:18.572Z,100093.44
2022-09-16T14:30:45.752Z,100115.09
2022-09-16T14:33:13.114Z,100116.78
2022-09-16T14:35:39.839Z,100128.03
2022-09-16T14:38:18.213Z,100153.53
2022-09-16T14:40:53.369Z,100181.94
2022-09-16T14:43:20.886Z,100186.03
2022-09-16T14:45:52.369Z,100200.59
2022-09-16T14:48:20.292Z,100212.06
2022-09-16T14:50:48.015Z,100225.75
2022-09-16T14:53:35.361Z,100241.19
2022-09-16T14:56:02.699Z,100249.75
2022-09-16T14:58:30.155Z,100263.13
2022-09-16T15:01:10.538Z,100276.38
2022-09-16T15:03:42.508Z,100270.31
2022-09-16T15:06:12.746Z,100283.56
2022-09-16T15:08:57.245Z,100280.47
2022-09-16T15:11:46.490Z,100260.47
2022-09-16T15:14:12.728Z,100185.50
2022-09-16T15:16:47.131Z,100111.06
2022-09-16T15:19:19.215Z,99945.25
2022-09-16T15:21:45.566Z,99854.25
2022-09-16T15:24:17.713Z,99812.31
2022-09-16T15:26:46.249Z,99782.47
2022-09-16T15:29:18.630Z,99771.19
2022-09-16T15:31:45.099Z,99777.88
2022-09-16T15:34:23.874Z,99770.22
2022-09-16T15:36:59.363Z,99769.78
2022-09-16T15:39:33.225Z,99787.19
2022-09-16T15:42:19.233Z,99788.72
2022-09-16T15:44:56.645Z,99798.09
2022-09-16T15:47:22.942Z,99811.69
2022-09-16T15:49:52.914Z,99832.94
2022-09-16T15:52:19.407Z,99827.69
2022-09-16T15:54:46.336Z,99833.81
2022-09-16T15:57:31.282Z,99871.25
2022-09-16T16:00:11.664Z,99861.97
2022-09-16T16:02:38.234Z,99877.59
2022-09-16T16:05:09.727Z,99871.56
2022-09-16T16:07:52.555Z,99871.59
2022-09-16T16:10:20.873Z,99888.91
2022-09-16T16:12:49.407Z,99867.38
2022-09-16T16:15:17.488Z,99825.50
2022-09-16T16:17:44.809Z,99830.22
2022-09-16T16:20:13.270Z,99846.06
2022-09-16T16:22:40.156Z,99863.03
2022-09-16T16:25:07.315Z,99852.31
2022-09-16T16:27:33.721Z,99830.88
2022-09-16T16:30:00.129Z,99882.31
2022-09-16T16:32:26.589Z,99861.72
2022-09-16T16:34:54.591Z,99849.84
2022-09-16T16:37:45.077Z,99798.03
2022-09-16T16:40:08.171Z,99858.78
2022-09-16T16:42:35.695Z,99943.44
2022-09-16T16:45:02.061Z,100008.25
2022-09-16T16:47:28.390Z,100058.38
2022-09-16T16:49:54.734Z,100066.91
2022-09-16T16:52:21.057Z,100063.47
2022-09-16T16:54:47.625Z,100046.00
2022-09-16T16:57:14.112Z,100046.25
2022-09-16T16:59:40.510Z,100030.06
2022-09-16T17:02:06.819Z,100027.22
2022-09-16T17:04:33.186Z,100022.19
2022-09-16T17:07:24.181Z,100016.78
2022-09-16T17:09:45.911Z,100017.47
2022-09-16T17:12:12.901Z,99995.84
2022-09-16T17:14:39.390Z,99994.16
2022-09-16T17:17:05.742Z,99979.81
2022-09-16T17:19:32.667Z,99969.44
2022-09-16T17:21:58.994Z,99967.34
2022-09-16T17:24:25.377Z,99960.97
2022-09-16T17:26:51.723Z,99960.28
2022-09-16T17:29:18.177Z,99948.06
2022-09-16T17:31:45.277Z,99954.53
2022-09-16T17:34:12.619Z,99944.41
2022-09-16T17:36:40.459Z,99936.53
2022-09-16T17:39:08.095Z,99938.78
2022-09-16T17:41:34.915Z,99935.94
2022-09-16T17:44:05.354Z,99929.34
2022-09-16T17:46:31.811Z,99927.81
2022-09-16T17:49:01.309Z,99932.97
2022-09-16T17:51:27.800Z,99935.59
2022-09-16T17:53:54.162Z,99936.78
2022-09-16T17:56:20.449Z,99949.16
2022-09-16T17:58:47.454Z,99934.53
2022-09-16T18:01:15.624Z,99946.28
2022-09-16T18:03:42.901Z,99935.06
2022-09-16T18:06:28.757Z,99926.63
2022-09-16T18:08:55.509Z,99929.28
2022-09-16T18:11:22.220Z,99923.25
2022-09-16T18:13:53.187Z,99922.72
2022-09-16T18:16:20.209Z,99931.09
2022-09-16T18:18:49.580Z,99933.09
2022-09-16T18:21:16.674Z,99944.63
2022-09-16T18:23:43.386Z,99951.13
2022-09-16T18:26:11.069Z,99946.59
2022-09-16T18:28:58.270Z,99953.28
2022-09-16T18:31:24.609Z,99951.63
2022-09-16T18:33:54.854Z,99958.97
2022-09-16T18:36:22.545Z,99960.53
2022-09-16T18:38:52.741Z,99965.97
2022-09-16T18:41:21.483Z,99967.09
2022-09-16T18:43:51.742Z,99969.94
2022-09-16T18:46:24.152Z,99976.06
2022-09-16T18:48:52.867Z,99972.81
2022-09-16T18:51:27.331Z,99984.66
2022-09-16T18:54:00.688Z,99991.19
2022-09-16T18:56:27.970Z,99987.84
2022-09-16T18:59:19.959Z,99994.75
2022-09-16T19:01:44.502Z,100000.81
2022-09-16T19:04:12.135Z,100008.72
2022-09-16T19:06:39.602Z,100014.59
2022-09-16T19:09:07.241Z,100013.53
2022-09-16T19:11:35.039Z,100018.69
2022-09-16T19:14:01.742Z,100026.69
2022-09-16T19:16:28.156Z,100038.34
2022-09-16T19:18:55.280Z,100043.66
2022-09-16T19:21:22.831Z,100041.78
2022-09-16T19:23:53.582Z,100052.38
2022-09-16T19:26:19.953Z,100053.41
2022-09-16T19:28:46.290Z,100060.38
2022-09-16T19:31:14.002Z,100061.34
2022-09-16T19:33:41.199Z,100071.31
2022-09-16T19:36:11.698Z,100077.97
2022-09-16T19:38:38.394Z,100078.31
2022-09-16T19:41:05.485Z,100085.34
2022-09-16T19:43:31.855Z,100086.25
2022-09-16T19:46:08.699Z,100097.66
2022-09-16T19:48:37.245Z,100091.09
2022-09-16T19:51:04.340Z,100092.44
2022-09-16T19:53:31.056Z,100092.19
2022-09-16T19:56:01.754Z,100104.31
2022-09-16T19:58:28.334Z,100107.06
2022-09-16T20:01:02.031Z,100113.00
2022-09-16T20:03:29.222Z,100106.13
2022-09-16T20:06:02.068Z,100112.78
2022-09-16T20:08:28.382Z,100114.34
2022-09-16T20:10:54.737Z,100125.47
2022-09-16T20:13:21.081Z,100125.97
2022-09-16T20:15:47.457Z,100131.66
2022-09-16T20:18:13.770Z,100138.31
2022-09-16T20:20:40.075Z,100132.88
2022-09-16T20:23:06.570Z,100145.06
2022-09-16T20:25:33.199Z,100145.22
2022-09-16T20:27:59.538Z,100147.47
2022-09-16T20:30:26.016Z,100155.38
2022-09-16T20:32:52.363Z,100158.25
2022-09-16T20:35:18.749Z,100169.50
2022-09-16T20:37:45.131Z,100157.97
2022-09-16T20:40:11.485Z,100173.94
2022-09-16T20:42:37.850Z,100178.72
2022-09-16T20:45:04.349Z,100183.09
2022-09-16T20:47:30.667Z,100195.06
2022-09-16T20:49:57.095Z,100206.28
2022-09-16T20:52:24.763Z,100213.00
2022-09-16T20:54:51.128Z,100216.69
2022-09-16T20:57:17.743Z,100217.38
2022-09-16T20:59:44.231Z,100230.06
2022-09-16T21:02:10.600Z,100228.72
2022-09-16T21:04:36.921Z,100241.72
2022-09-16T21:07:03.311Z,100249.50
2022-09-16T21:09:29.633Z,100249.53
2022-09-16T21:11:56.020Z,100255.59
2022-09-16T21:14:22.598Z,100256.06
2022-09-16T21:16:49.365Z,100273.13
2022-09-16T21:19:16.549Z,100271.81
2022-09-16T21:21:49.872Z,100278.72
2022-09-16T21:24:16.468Z,100288.88
2022-09-16T21:26:44.046Z,100300.81
2022-09-16T21:29:17.481Z,100300.88
2022-09-16T21:31:44.370Z,100300.03
2022-09-16T21:34:20.454Z,100305.94
2022-09-16T21:36:47.455Z,100310.28
2022-09-16T21:39:14.482Z,100304.91
2022-09-16T21:41:41.438Z,100323.06
2022-09-16T21:44:07.865Z,100330.47
2022-09-16T21:46:41.186Z,100339.22
2022-09-16T21:49:14.313Z,100348.22
2022-09-16T21:51:40.622Z,100358.44
2022-09-16T21:54:08.311Z,100362.59
2022-09-16T21:56:37.025Z,100376.97
2022-09-16T21:59:03.406Z,100386.06
2022-09-16T22:01:31.445Z,100393.97
2022-09-16T22:03:59.740Z,100402.59
2022-09-16T22:06:27.128Z,100415.31
2022-09-16T22:08:54.528Z,100430.41
2022-09-16T22:11:21.756Z,100445.06
2022-09-16T22:13:48.525Z,100457.81
2022-09-16T22:16:28.831Z,100473.72
2022-09-16T22:19:03.181Z,100483.94
2022-09-16T22:21:31.249Z,100501.66
2022-09-16T22:24:01.361Z,100512.59
2022-09-16T22:26:28.440Z,100530.31
2022-09-16T22:28:55.120Z,100545.72
2022-09-16T22:31:22.649Z,100561.03
2022-09-16T22:33:49.682Z,100580.50
2022-09-16T22:36:18.388Z,100605.50
2022-09-16T22:38:48.630Z,100634.91
2022-09-16T22:41:15.509Z,100644.16
2022-09-16T22:43:43.124Z,100651.53
2022-09-16T22:46:11.030Z,100666.06
2022-09-16T22:48:37.438Z,100675.47
2022-09-16T22:51:04.347Z,100678.84
2022-09-16T22:53:31.359Z,100687.38
2022-09-16T22:55:58.968Z,100694.03
2022-09-16T22:58:25.790Z,100702.00
2022-09-16T23:00:53.042Z,100709.16
2022-09-16T23:03:20.042Z,100714.47
2022-09-16T23:05:56.861Z,100718.66
2022-09-16T23:08:24.021Z,100724.94
2022-09-16T23:10:51.244Z,100720.41
2022-09-16T23:13:18.166Z,100733.66
2022-09-16T23:15:45.489Z,100738.41
2022-09-16T23:18:12.097Z,100739.25
2022-09-16T23:20:38.463Z,100740.41
2022-09-16T23:23:04.990Z,100754.03
2022-09-16T23:25:31.320Z,100751.25
2022-09-16T23:27:58.033Z,100761.28
2022-09-16T23:30:24.394Z,100772.06
2022-09-16T23:32:50.718Z,100780.75
2022-09-16T23:35:17.904Z,100779.19
2022-09-16T23:37:44.198Z,100794.50
2022-09-16T23:40:10.845Z,100800.25
2022-09-16T23:42:37.219Z,100855.28
2022-09-16T23:45:04.281Z,100870.88
2022-09-16T23:47:30.612Z,100876.63
2022-09-16T23:49:57.109Z,100878.19
2022-09-16T23:52:23.419Z,100884.47
2022-09-16T23:54:49.726Z,100879.25
2022-09-16T23:57:16.042Z,100884.19
2022-09-16T23:59:42.363Z,100885.28
